Time;durP1;ratioP1;P1;durP2;ratioP2;P2;SDS_P1;SDS_P2;PMS_P1;PMS_P2;Temp;Humidity;BMP_temperature;BMP_pressure;BME280_temperature;BME280_humidity;BME280_pressure;Samples;Min_cycle;Max_cycle;Signal;HPM_P1;HPM_P2
2022/05/03 00:01:20;;;;;;;1.65;0.30;;;;;;;11.64;63.85;101072.09;5063563;28;20074;-68
2022/05/03 00:04:02;;;;;;;0.32;0.32;;;;;;;11.67;63.87;101076.84;5062440;28;20493;-69
2022/05/03 00:06:57;;;;;;;0.40;0.40;;;;;;;11.55;64.25;101066.91;5067576;28;20032;-68
2022/05/03 00:09:51;;;;;;;0.47;0.32;;;;;;;11.52;65.06;101066.81;5049968;28;20091;-68
2022/05/03 00:12:23;;;;;;;0.50;0.30;;;;;;;11.48;64.72;101063.25;5060454;28;20033;-67
2022/05/03 00:14:53;;;;;;;0.40;0.40;;;;;;;11.42;65.92;101059.28;5069467;28;20548;-69
2022/05/03 00:17:19;;;;;;;0.55;0.35;;;;;;;11.39;66.22;101054.56;5068022;28;20044;-68
2022/05/03 00:19:45;;;;;;;0.63;0.43;;;;;;;11.37;66.47;101054.13;5067702;28;20146;-68
2022/05/03 00:22:14;;;;;;;0.60;0.60;;;;;;;11.40;66.42;101048.06;5057034;28;20147;-69
2022/05/03 00:24:43;;;;;;;0.50;0.45;;;;;;;11.29;67.39;101047.81;5064448;28;20040;-69
2022/05/03 00:27:09;;;;;;;1.30;0.60;;;;;;;11.28;67.08;101053.53;5069511;28;20032;-69
2022/05/03 00:29:35;;;;;;;1.08;0.60;;;;;;;11.22;67.90;101050.34;5056760;28;20043;-68
2022/05/03 00:32:02;;;;;;;0.50;0.32;;;;;;;11.23;67.40;101049.19;5066109;28;20029;-68
2022/05/03 00:34:30;;;;;;;0.40;0.40;;;;;;;11.20;67.86;101052.59;5069873;28;20036;-68
2022/05/03 00:36:55;;;;;;;0.63;0.60;;;;;;;11.19;67.67;101045.63;5063584;28;20047;-69
2022/05/03 00:39:20;;;;;;;1.08;0.63;;;;;;;11.15;67.94;101046.69;5106726;22;20053;-68
2022/05/03 00:42:03;;;;;;;0.95;0.47;;;;;;;11.06;67.88;101044.16;5074407;28;20459;-68
2022/05/03 00:44:56;;;;;;;0.40;0.40;;;;;;;11.08;68.28;101046.50;5072325;28;20105;-68
2022/05/03 00:47:43;;;;;;;0.22;0.22;;;;;;;11.01;68.92;101040.94;5063966;28;20488;-68
2022/05/03 00:50:15;;;;;;;1.85;0.45;;;;;;;10.98;69.10;101041.63;5068414;28;20028;-67
2022/05/03 00:52:55;;;;;;;2.55;1.42;;;;;;;10.90;69.77;101049.53;5068748;28;20063;-69
2022/05/03 00:55:30;;;;;;;0.20;0.20;;;;;;;10.89;69.99;101042.59;5065990;28;20041;-70
2022/05/03 00:58:17;;;;;;;0.80;0.40;;;;;;;10.85;70.38;101044.41;5082404;28;20058;-69
2022/05/03 01:00:53;;;;;;;5.95;2.05;;;;;;;10.80;70.16;101039.28;5065906;28;20120;-69
2022/05/03 01:03:56;;;;;;;1.00;0.52;;;;;;;10.80;70.76;101047.34;5062204;28;20419;-68
2022/05/03 01:06:35;;;;;;;0.65;0.45;;;;;;;10.73;70.79;101035.63;5044203;28;20044;-71
2022/05/03 01:09:07;;;;;;;0.95;0.57;;;;;;;10.76;71.03;101040.31;5069822;28;20032;-70
2022/05/03 01:11:42;;;;;;;0.85;0.50;;;;;;;10.64;71.86;101035.78;5067868;28;20551;-70
2022/05/03 01:14:20;;;;;;;0.40;0.40;;;;;;;10.57;71.95;101032.91;5063142;28;20029;-69
2022/05/03 01:17:00;;;;;;;0.73;0.60;;;;;;;10.56;72.51;101049.41;5067384;28;20040;-69
2022/05/03 01:19:47;;;;;;;1.15;0.45;;;;;;;10.47;72.93;101049.56;5063411;28;20045;-69
2022/05/03 01:22:44;;;;;;;0.30;0.30;;;;;;;10.42;73.04;101030.97;5073194;28;20062;-69
2022/05/03 01:25:23;;;;;;;1.05;0.52;;;;;;;10.38;72.98;101029.28;5069045;28;20047;-69
2022/05/03 01:28:03;;;;;;;0.68;0.45;;;;;;;10.41;72.57;101025.94;5074934;28;20036;-69
2022/05/03 01:30:31;;;;;;;0.20;0.20;;;;;;;10.41;72.71;101029.41;5068397;28;20061;-69
2022/05/03 01:33:06;;;;;;;0.73;0.68;;;;;;;10.38;72.86;101023.91;5090344;28;20107;-69
2022/05/03 01:35:40;;;;;;;0.30;0.30;;;;;;;10.35;73.51;101019.22;5075618;28;20089;-69
2022/05/03 01:38:09;;;;;;;0.45;0.40;;;;;;;10.35;73.55;101030.78;5067092;28;20044;-69
2022/05/03 01:40:53;;;;;;;1.27;0.68;;;;;;;10.30;74.28;101017.56;5073936;28;20028;-69
2022/05/03 01:43:43;;;;;;;0.50;0.50;;;;;;;10.28;73.96;101025.19;5071975;28;20028;-69
2022/05/03 01:46:14;;;;;;;0.98;0.43;;;;;;;10.23;74.80;101022.75;5068655;28;20565;-69
2022/05/03 01:51:43;;;;;;;0.55;0.50;;;;;;;10.16;75.57;101016.41;5067550;28;19912;-68
2022/05/03 01:54:44;;;;;;;0.32;0.32;;;;;;;10.17;75.58;101018.75;5074248;28;20036;-69
2022/05/03 01:57:21;;;;;;;0.45;0.45;;;;;;;10.11;75.64;101017.41;5039450;28;20135;-69
2022/05/03 02:00:06;;;;;;;0.95;0.75;;;;;;;10.10;75.67;101013.16;5072431;28;20501;-69
2022/05/03 02:02:51;;;;;;;0.68;0.57;;;;;;;10.08;76.16;101023.47;5074686;28;20040;-69
2022/05/03 02:05:30;;;;;;;1.05;0.30;;;;;;;10.08;75.94;101019.97;5074560;28;20035;-70
2022/05/03 02:07:57;;;;;;;0.43;0.40;;;;;;;10.08;75.33;101014.59;5071205;28;20036;-70
2022/05/03 02:10:47;;;;;;;0.85;0.60;;;;;;;10.06;76.03;101017.63;5072835;28;20098;-69
2022/05/03 02:13:24;;;;;;;0.88;0.65;;;;;;;10.06;76.26;101017.63;5075443;28;20036;-69
2022/05/03 02:15:57;;;;;;;0.85;0.70;;;;;;;10.01;76.51;101020.53;5072858;28;20377;-69
2022/05/03 02:18:54;;;;;;;0.88;0.55;;;;;;;9.98;77.20;101026.63;5069493;28;20115;-69
2022/05/03 02:21:32;;;;;;;0.98;0.55;;;;;;;9.93;77.76;101021.47;5066327;28;20553;-70
2022/05/03 02:24:03;;;;;;;0.30;0.30;;;;;;;9.86;77.66;101015.88;5063727;28;20484;-69
2022/05/03 02:26:55;;;;;;;0.57;0.40;;;;;;;9.83;77.08;101011.97;5074112;28;20078;-69
2022/05/03 02:29:32;;;;;;;0.47;0.40;;;;;;;9.78;77.47;101012.22;5075264;28;20404;-69
2022/05/03 02:32:08;;;;;;;0.93;0.55;;;;;;;9.76;78.31;101019.06;5067977;28;20424;-69
2022/05/03 02:34:45;;;;;;;0.45;0.45;;;;;;;9.76;78.18;101011.78;5071247;28;20110;-69
2022/05/03 02:37:24;;;;;;;0.40;0.40;;;;;;;9.70;78.21;101007.75;5081723;28;20047;-69
2022/05/03 02:39:59;;;;;;;0.60;0.40;;;;;;;9.67;78.27;101011.13;5066175;28;20036;-69
2022/05/03 02:42:25;;;;;;;0.88;0.50;;;;;;;9.65;78.63;101008.00;5071607;28;20430;-69
2022/05/03 02:44:55;;;;;;;0.80;0.45;;;;;;;9.64;78.81;101006.41;5072076;28;20290;-69
2022/05/03 02:47:29;;;;;;;0.55;0.40;;;;;;;9.64;78.25;101001.03;5072171;28;20071;-69
2022/05/03 02:50:14;;;;;;;1.48;0.75;;;;;;;9.60;78.44;101004.75;5055249;28;20040;-69
2022/05/03 02:52:57;;;;;;;0.68;0.63;;;;;;;9.53;78.76;101001.84;5070062;28;20298;-69
2022/05/03 02:55:32;;;;;;;0.82;0.68;;;;;;;9.50;78.65;101002.53;5072111;28;20033;-69
2022/05/03 02:58:27;;;;;;;3.70;0.55;;;;;;;9.46;79.18;100998.94;5069913;28;20049;-69
2022/05/03 03:04:04;;;;;;;1.00;0.73;;;;;;;9.41;79.54;100999.16;5070813;28;20040;-69
2022/05/03 03:06:37;;;;;;;0.47;0.45;;;;;;;9.38;79.93;100991.78;5070665;28;20075;-69
2022/05/03 03:09:03;;;;;;;0.88;0.75;;;;;;;9.36;79.95;100984.06;5085384;28;20036;-69
2022/05/03 03:11:52;;;;;;;1.92;0.93;;;;;;;9.36;80.44;100994.81;5070748;28;20122;-69
2022/05/03 03:14:34;;;;;;;1.27;0.60;;;;;;;9.33;80.42;100992.03;5070374;28;20040;-69
2022/05/03 03:17:10;;;;;;;1.13;1.00;;;;;;;9.36;80.32;100994.03;5067277;28;20051;-69
2022/05/03 03:19:52;;;;;;;0.50;0.50;;;;;;;9.33;80.57;101000.84;5067571;28;20056;-69
2022/05/03 03:22:19;;;;;;;1.02;0.70;;;;;;;9.27;81.27;100990.69;5067230;28;20047;-69
2022/05/03 03:24:48;;;;;;;2.95;0.82;;;;;;;9.26;81.65;100989.91;5063673;28;20029;-68
2022/05/03 03:27:14;;;;;;;3.97;1.08;;;;;;;9.32;81.58;100987.75;5068836;28;20024;-68
2022/05/03 03:29:40;;;;;;;1.23;0.77;;;;;;;9.32;81.59;100987.75;5068728;28;20090;-68
2022/05/03 03:32:08;;;;;;;0.65;0.65;;;;;;;9.29;81.93;100989.22;5061994;28;20127;-69
2022/05/03 03:34:35;;;;;;;0.65;0.60;;;;;;;9.30;82.03;100988.09;5065917;28;20137;-69
2022/05/03 03:37:01;;;;;;;0.80;0.80;;;;;;;9.30;81.81;100992.69;5075276;28;20076;-69
2022/05/03 03:39:30;;;;;;;1.17;0.88;;;;;;;9.27;82.01;100985.31;5058898;28;20098;-69
2022/05/03 03:42:00;;;;;;;3.50;1.00;;;;;;;9.23;82.30;100985.22;5080737;28;20472;-69
2022/05/03 03:44:26;;;;;;;1.05;0.95;;;;;;;9.24;82.74;100983.28;5061654;28;20094;-69
2022/05/03 03:46:51;;;;;;;1.45;0.88;;;;;;;9.21;83.24;100973.22;5061422;28;20522;-69
2022/05/03 03:49:17;;;;;;;2.13;1.10;;;;;;;9.27;83.01;100979.94;5079878;28;20103;-69
2022/05/03 03:51:44;;;;;;;1.65;0.93;;;;;;;9.29;83.36;100983.06;5061713;28;20047;-69
2022/05/03 03:54:09;;;;;;;1.52;1.30;;;;;;;9.32;83.46;100990.44;5067149;28;20063;-69
2022/05/03 03:56:35;;;;;;;1.40;0.90;;;;;;;9.33;83.32;100995.47;5068896;28;20446;-69
2022/05/03 03:59:02;;;;;;;1.85;1.38;;;;;;;9.33;83.40;100998.16;5069650;28;20045;-69
2022/05/03 04:01:28;;;;;;;2.22;1.38;;;;;;;9.35;83.66;101000.53;5067790;28;20041;-70
2022/05/03 04:03:54;;;;;;;2.35;1.00;;;;;;;9.33;83.58;100994.72;5061310;28;20036;-69
2022/05/03 04:06:19;;;;;;;3.92;0.93;;;;;;;9.38;83.57;100997.16;5067982;28;20455;-69
2022/05/03 04:08:45;;;;;;;1.23;0.90;;;;;;;9.33;83.64;101002.78;5068671;28;20032;-69
2022/05/03 04:11:15;;;;;;;3.22;1.73;;;;;;;9.32;83.83;100998.50;5066556;28;20404;-69
2022/05/03 04:13:42;;;;;;;8.68;1.10;;;;;;;9.32;83.84;101009.25;5059952;28;20211;-70
2022/05/03 04:16:08;;;;;;;1.90;1.02;;;;;;;9.30;84.12;101000.75;5070444;28;20032;-69
2022/05/03 04:18:44;;;;;;;3.22;1.35;;;;;;;9.31;84.61;101010.41;5067106;28;20407;-69
2022/05/03 04:21:17;;;;;;;1.15;0.93;;;;;;;9.39;84.45;101009.50;5066415;28;20063;-69
2022/05/03 04:23:45;;;;;;;0.90;0.90;;;;;;;9.49;84.48;101011.69;5066646;28;20116;-69
2022/05/03 04:26:14;;;;;;;2.05;1.17;;;;;;;9.49;85.01;101004.44;5062520;28;20028;-69
2022/05/03 04:28:41;;;;;;;1.48;1.10;;;;;;;9.62;84.47;101005.22;5064416;28;20037;-69
2022/05/03 04:31:06;;;;;;;1.67;1.17;;;;;;;9.63;85.01;101004.06;5066174;28;20029;-69
2022/05/03 04:33:32;;;;;;;5.78;2.25;;;;;;;9.63;85.10;101010.25;5057435;28;20648;-69
2022/05/03 04:35:58;;;;;;;1.92;0.93;;;;;;;9.77;84.92;101007.97;5052979;28;20020;-69
2022/05/03 04:38:24;;;;;;;2.60;1.73;;;;;;;9.89;84.05;101002.53;5051075;28;20033;-69
2022/05/03 04:40:49;;;;;;;1.17;1.08;;;;;;;9.97;84.57;101016.97;5054022;28;20163;-70
2022/05/03 04:43:16;;;;;;;2.53;1.13;;;;;;;10.02;84.68;101006.78;5052233;28;20068;-69
2022/05/03 04:45:42;;;;;;;2.33;1.50;;;;;;;10.12;84.16;101016.31;5056181;28;20469;-70
2022/05/03 04:48:09;;;;;;;2.15;1.25;;;;;;;10.21;83.78;101010.75;5072343;28;20061;-70
2022/05/03 04:50:35;;;;;;;1.67;1.23;;;;;;;10.21;84.41;101016.94;5064369;28;20070;-70
2022/05/03 04:53:01;;;;;;;1.75;1.17;;;;;;;10.25;84.05;101017.03;5066158;28;20037;-70
2022/05/03 04:55:27;;;;;;;1.58;1.20;;;;;;;10.25;84.16;101014.31;5063944;28;20028;-70
2022/05/03 04:57:55;;;;;;;4.22;2.15;;;;;;;10.31;84.58;101023.72;5058860;28;20127;-69
2022/05/03 05:00:21;;;;;;;5.97;1.17;;;;;;;10.39;84.38;101025.50;5064413;28;20044;-69
2022/05/03 05:02:46;;;;;;;2.13;1.10;;;;;;;10.39;85.18;101020.91;5065155;28;20028;-69
2022/05/03 05:05:12;;;;;;;3.08;1.65;;;;;;;10.49;84.83;101033.84;5065878;28;20481;-69
2022/05/03 05:07:37;;;;;;;2.17;1.35;;;;;;;10.58;83.99;101039.88;5067251;28;20040;-68
2022/05/03 05:12:47;;;;;;;2.20;1.23;;;;;;;10.58;84.82;101036.38;5078303;28;20101;-68
2022/05/03 05:15:12;;;;;;;2.40;1.15;;;;;;;10.65;84.80;101040.03;5060094;28;20024;-69
2022/05/03 05:17:37;;;;;;;3.90;1.60;;;;;;;10.76;83.71;101037.63;5058545;28;20044;-69
2022/05/03 05:20:03;;;;;;;2.08;1.10;;;;;;;10.74;83.76;101040.66;5058318;28;20098;-69
2022/05/03 05:22:28;;;;;;;1.27;0.98;;;;;;;10.82;83.44;101044.31;5063030;28;20052;-67
2022/05/03 05:24:54;;;;;;;2.20;1.58;;;;;;;10.81;83.85;101043.53;5058510;28;20032;-69
2022/05/03 05:27:19;;;;;;;1.45;1.08;;;;;;;10.81;84.66;101038.16;5061534;28;20205;-68
2022/05/03 05:29:45;;;;;;;14.27;1.58;;;;;;;10.90;84.80;101043.34;5073725;28;20036;-68
2022/05/03 05:32:10;;;;;;;1.73;1.17;;;;;;;11.08;83.50;101039.19;5052390;28;20098;-69
2022/05/03 05:34:35;;;;;;;1.60;1.00;;;;;;;11.07;83.67;101032.22;5048221;28;20040;-68
2022/05/03 05:37:01;;;;;;;0.80;0.80;;;;;;;11.08;84.17;101044.59;5068520;28;20033;-70
2022/05/03 05:39:26;;;;;;;3.45;1.40;;;;;;;11.11;83.85;101043.13;5061000;28;20036;-72
2022/05/03 05:41:56;;;;;;;1.50;1.08;;;;;;;11.16;83.81;101043.63;5062792;28;20044;-68
2022/05/03 05:44:22;;;;;;;2.92;1.45;;;;;;;11.16;83.72;101034.75;5069551;28;20051;-67
2022/05/03 05:46:48;;;;;;;1.65;1.05;;;;;;;11.13;84.61;101038.16;5059630;28;20052;-67
2022/05/03 05:49:13;;;;;;;3.67;1.95;;;;;;;11.40;83.50;101035.34;5060114;28;20028;-68
2022/05/03 05:51:38;;;;;;;2.42;1.30;;;;;;;11.33;83.50;101035.19;5058683;28;20665;-67
2022/05/03 05:54:24;;;;;;;2.42;1.20;;;;;;;11.58;83.26;101033.03;5059430;28;20116;-68
2022/05/03 05:56:49;;;;;;;2.78;1.30;;;;;;;11.77;82.74;101036.59;4982498;28;20492;-67
2022/05/03 05:59:15;;;;;;;3.17;1.58;;;;;;;11.90;82.58;101031.88;4997008;28;20054;-69
2022/05/03 06:01:41;;;;;;;5.35;1.80;;;;;;;12.02;82.02;101037.09;5007865;28;20044;-68
2022/05/03 06:04:07;;;;;;;1.88;1.15;;;;;;;12.33;82.19;101030.81;5003911;28;20120;-68
2022/05/03 06:06:35;;;;;;;6.53;1.10;;;;;;;12.85;80.85;101036.41;5002233;28;20030;-67
2022/05/03 06:09:02;;;;;;;2.72;1.27;;;;;;;13.27;78.24;101028.22;4986251;28;20790;-68
2022/05/03 06:11:29;;;;;;;3.25;1.55;;;;;;;13.35;76.10;101033.38;4990853;28;20077;-69
2022/05/03 06:13:54;;;;;;;2.55;1.52;;;;;;;13.19;76.79;101034.66;5008258;28;20046;-70
2022/05/03 06:16:20;;;;;;;2.28;1.40;;;;;;;13.32;76.54;101041.41;5007661;28;20045;-69
2022/05/03 06:18:46;;;;;;;3.58;1.67;;;;;;;13.32;76.71;101044.13;5007470;28;20042;-70
2022/05/03 06:21:12;;;;;;;4.10;1.98;;;;;;;13.20;76.70;101038.94;4991918;28;20052;-69
2022/05/03 06:23:37;;;;;;;4.40;1.50;;;;;;;13.00;78.45;101040.09;5008823;28;20084;-69
2022/05/03 06:26:06;;;;;;;4.18;1.45;;;;;;;12.90;78.39;101046.09;5005369;28;20026;-68
2022/05/03 06:28:32;;;;;;;3.28;1.67;;;;;;;12.84;79.42;101039.44;5002256;28;20045;-68
2022/05/03 06:30:58;;;;;;;2.47;1.20;;;;;;;12.78;80.16;101044.38;5000763;28;21042;-67
2022/05/03 06:33:23;;;;;;;3.97;2.08;;;;;;;12.65;81.02;101043.78;5018333;28;20084;-68
2022/05/03 06:35:49;;;;;;;3.63;1.58;;;;;;;12.70;81.53;101056.19;5067278;28;20036;-68
2022/05/03 06:38:14;;;;;;;2.45;1.40;;;;;;;12.72;82.14;101047.75;5085147;22;20008;-69
2022/05/03 06:40:40;;;;;;;5.38;1.73;;;;;;;12.60;84.20;101044.03;5082137;28;20047;-70
2022/05/03 06:43:06;;;;;;;8.80;1.58;;;;;;;12.52;85.66;101060.50;5060864;28;20036;-69
2022/05/03 06:45:31;;;;;;;4.80;1.42;;;;;;;12.43;87.05;101052.59;5088290;28;20042;-69
2022/05/03 06:47:57;;;;;;;4.28;2.45;;;;;;;12.49;86.80;101056.59;5081757;28;20050;-70
2022/05/03 06:50:22;;;;;;;4.85;2.00;;;;;;;12.47;87.66;101066.97;5062035;28;20116;-70
2022/05/03 06:52:48;;;;;;;3.70;1.65;;;;;;;12.52;86.72;101072.06;5060251;28;20029;-70
2022/05/03 06:55:14;;;;;;;8.63;2.20;;;;;;;12.39;88.28;101067.97;5051173;28;20028;-69
2022/05/03 06:57:39;;;;;;;1.85;1.60;;;;;;;12.34;88.88;101075.56;5062700;28;21967;-69
2022/05/03 07:00:06;;;;;;;2.85;1.73;;;;;;;12.27;89.12;101070.78;5063687;28;21633;-67
2022/05/03 07:02:32;;;;;;;12.70;1.92;;;;;;;12.35;89.34;101074.44;5043480;28;20033;-69
2022/05/03 07:04:59;;;;;;;4.32;1.95;;;;;;;12.40;89.14;101088.44;5055630;28;20039;-68
2022/05/03 07:07:26;;;;;;;5.28;2.28;;;;;;;12.44;88.88;101083.91;5056566;28;20044;-70
2022/05/03 07:09:51;;;;;;;2.35;1.63;;;;;;;12.45;88.79;101079.25;5067626;28;20039;-68
2022/05/03 07:12:17;;;;;;;2.65;1.73;;;;;;;12.50;89.37;101087.09;5041241;28;20041;-69
2022/05/03 07:14:42;;;;;;;2.70;1.88;;;;;;;12.43;90.00;101093.13;5059099;28;20037;-69
2022/05/03 07:17:08;;;;;;;3.97;1.52;;;;;;;12.48;89.33;101087.44;5067812;28;20054;-70
2022/05/03 07:25:02;;;;;;;5.60;2.00;;;;;;;12.56;90.22;101086.41;5044726;28;20025;-69
2022/05/03 07:27:28;;;;;;;4.00;2.25;;;;;;;12.69;89.74;101087.84;5060453;28;20039;-69
2022/05/03 07:29:53;;;;;;;7.85;2.35;;;;;;;12.80;89.47;101087.25;5058902;28;20548;-70
2022/05/03 07:32:19;;;;;;;4.28;1.88;;;;;;;12.89;89.18;101095.94;5046510;28;20115;-69
2022/05/03 07:34:46;;;;;;;5.32;2.25;;;;;;;12.91;89.32;101094.41;5061757;28;20119;-70
2022/05/03 07:37:12;;;;;;;4.97;2.08;;;;;;;12.89;89.07;101091.28;5068329;28;20506;-69
2022/05/03 07:39:38;;;;;;;3.85;2.20;;;;;;;12.93;89.86;101089.41;5061480;28;20029;-68
2022/05/03 07:42:03;;;;;;;3.90;2.40;;;;;;;12.96;89.99;101080.59;5055129;28;20030;-69
2022/05/03 07:44:29;;;;;;;3.90;2.00;;;;;;;12.99;91.04;101085.28;5066525;28;20028;-69
2022/05/03 07:46:54;;;;;;;3.88;2.30;;;;;;;13.10;91.03;101088.22;5069589;28;20090;-69
2022/05/03 07:49:20;;;;;;;7.72;2.55;;;;;;;13.11;90.67;101081.66;5032889;28;20032;-69
2022/05/03 07:51:45;;;;;;;4.63;2.08;;;;;;;13.16;91.53;101086.78;5066479;28;20036;-68
2022/05/03 07:54:11;;;;;;;9.90;2.47;;;;;;;13.18;91.39;101090.66;5031388;28;20043;-68
2022/05/03 07:56:36;;;;;;;4.13;1.77;;;;;;;13.30;90.22;101089.69;5048078;28;20026;-68
2022/05/03 07:59:03;;;;;;;10.90;3.10;;;;;;;13.28;90.44;101100.88;5069127;28;20045;-69
2022/05/03 08:01:29;;;;;;;6.70;2.00;;;;;;;13.25;91.30;101098.91;5064089;28;20448;-68
2022/05/03 08:03:54;;;;;;;3.88;1.90;;;;;;;13.29;90.88;101091.63;5065926;28;20107;-68
2022/05/03 08:06:23;;;;;;;6.00;1.90;;;;;;;13.30;91.75;101098.59;5070919;28;20058;-70
2022/05/03 08:08:48;;;;;;;13.77;2.30;;;;;;;13.33;90.80;101100.59;5032884;28;20041;-69
2022/05/03 08:11:14;;;;;;;4.88;2.40;;;;;;;13.43;90.37;101104.63;5037231;28;20040;-69
2022/05/03 08:13:39;;;;;;;6.60;2.75;;;;;;;13.36;90.23;101101.78;5059595;28;20041;-70
2022/05/03 08:16:16;;;;;;;11.13;2.58;;;;;;;13.39;90.20;101109.19;5064226;28;20040;-69
2022/05/03 08:18:42;;;;;;;3.60;1.48;;;;;;;13.31;90.98;101105.59;5064032;28;20044;-69
2022/05/03 08:21:07;;;;;;;4.93;2.10;;;;;;;13.35;91.54;101113.75;5066806;28;20074;-69
2022/05/03 08:23:35;;;;;;;7.50;3.03;;;;;;;13.40;91.92;101110.72;5050997;28;20024;-69
2022/05/03 08:26:00;;;;;;;4.93;1.90;;;;;;;13.40;92.07;101111.53;5058548;28;20028;-69
2022/05/03 08:28:26;;;;;;;3.33;2.17;;;;;;;13.40;91.95;101119.63;5065458;28;20040;-69
2022/05/03 08:30:51;;;;;;;6.63;2.20;;;;;;;13.45;91.92;101126.69;5065986;28;20043;-69
2022/05/03 08:33:17;;;;;;;6.03;2.25;;;;;;;13.44;91.38;101122.38;5055534;28;20068;-69
2022/05/03 08:35:42;;;;;;;2.92;1.77;;;;;;;13.51;90.82;101127.94;5067812;28;20047;-69
2022/05/03 08:43:39;;;;;;;5.57;1.88;;;;;;;13.46;92.42;101130.94;5067214;28;20074;-69
2022/05/03 08:46:06;;;;;;;2.75;1.50;;;;;;;13.45;92.54;101134.78;5066425;28;20032;-69
2022/05/03 08:48:35;;;;;;;4.40;1.70;;;;;;;13.42;91.87;101136.28;5048711;28;20033;-69
2022/05/03 08:51:00;;;;;;;5.18;2.03;;;;;;;13.39;92.15;101131.59;5061749;28;20086;-70
2022/05/03 08:53:26;;;;;;;5.00;1.77;;;;;;;13.56;91.38;101139.22;5065994;28;20028;-69
2022/05/03 08:55:52;;;;;;;3.45;1.52;;;;;;;13.52;91.72;101134.91;5067374;28;20021;-69
2022/05/03 08:58:18;;;;;;;7.10;1.75;;;;;;;13.51;91.88;101144.94;5065346;28;20677;-69
2022/05/03 09:00:44;;;;;;;4.88;1.55;;;;;;;13.58;90.92;101139.66;5061796;28;20430;-69
2022/05/03 09:03:09;;;;;;;3.13;1.20;;;;;;;13.64;90.73;101139.34;5044498;28;20039;-69
2022/05/03 09:05:35;;;;;;;3.67;2.42;;;;;;;13.59;90.50;101133.09;5056977;28;20120;-69
2022/05/03 09:08:01;;;;;;;2.53;1.45;;;;;;;13.60;90.49;101133.88;5041092;28;20041;-69
2022/05/03 09:10:33;;;;;;;3.92;1.75;;;;;;;13.70;89.40;101146.00;5061102;28;20124;-69
2022/05/03 09:13:22;;;;;;;5.47;1.45;;;;;;;13.72;89.05;101144.50;5058016;28;20024;-69
2022/05/03 09:16:09;;;;;;;5.57;1.60;;;;;;;13.68;89.19;101146.38;5061472;28;20029;-69
2022/05/03 09:18:53;;;;;;;4.60;1.75;;;;;;;13.81;88.28;101149.66;5045438;28;20567;-69
2022/05/03 09:24:05;;;;;;;3.63;1.50;;;;;;;13.76;87.74;101158.88;5054383;28;20055;-69
2022/05/03 09:26:31;;;;;;;4.47;2.03;;;;;;;13.73;87.85;101154.19;5043762;28;20052;-69
2022/05/03 09:29:01;;;;;;;6.00;1.50;;;;;;;13.84;87.89;101154.34;5058621;28;20440;-69
2022/05/03 09:31:32;;;;;;;3.20;1.55;;;;;;;13.94;87.71;101154.50;5053527;28;20447;-68
2022/05/03 09:34:17;;;;;;;3.35;1.63;;;;;;;13.94;87.54;101146.38;5049239;28;20037;-69
2022/05/03 09:36:50;;;;;;;4.22;1.77;;;;;;;14.15;86.68;101151.31;5055720;28;20040;-69
2022/05/03 09:39:29;;;;;;;2.88;1.20;;;;;;;14.31;85.01;101147.31;5054453;28;20089;-69
2022/05/03 09:42:06;;;;;;;4.00;1.48;;;;;;;14.44;84.14;101142.44;5054115;28;20042;-69
2022/05/03 09:44:36;;;;;;;4.28;1.73;;;;;;;14.62;83.62;101146.16;5042975;28;20032;-69
2022/05/03 09:47:06;;;;;;;3.47;1.20;;;;;;;14.99;82.12;101152.38;5025983;28;20028;-68
2022/05/03 09:49:37;;;;;;;3.83;1.50;;;;;;;15.13;80.09;101146.31;5039055;28;20516;-68
2022/05/03 09:52:04;;;;;;;3.22;1.48;;;;;;;15.29;79.18;101144.91;5057799;28;20066;-68
2022/05/03 09:54:49;;;;;;;2.00;1.27;;;;;;;15.23;78.98;101157.25;5055446;28;20596;-68
2022/05/03 09:57:23;;;;;;;4.78;1.50;;;;;;;15.48;76.55;101149.38;5038636;28;20163;-68
2022/05/03 09:59:50;;;;;;;1.95;1.02;;;;;;;15.30;76.80;101156.56;5058289;28;20059;-68
2022/05/03 10:02:22;;;;;;;2.92;1.60;;;;;;;15.37;76.94;101143.03;5059020;28;20044;-67
2022/05/03 10:04:49;;;;;;;4.03;1.20;;;;;;;15.35;76.38;101151.56;5059918;28;20059;-69
2022/05/03 10:07:15;;;;;;;2.95;1.60;;;;;;;15.36;76.50;101146.91;5054977;28;20398;-69
2022/05/03 10:09:42;;;;;;;5.03;1.83;;;;;;;15.36;76.29;101139.56;5056429;28;20037;-66
2022/05/03 10:12:14;;;;;;;1.77;1.00;;;;;;;15.51;75.63;101137.75;5042677;28;20037;-69
2022/05/03 10:14:44;;;;;;;3.60;1.40;;;;;;;15.56;75.57;101129.28;5058665;28;20044;-71
2022/05/03 10:22:53;;;;;;;1.15;0.73;;;;;;;16.72;71.11;101131.88;5066385;28;20040;-68
2022/05/03 10:25:28;;;;;;;1.95;1.27;;;;;;;17.31;69.86;101131.19;5064183;28;20036;-68
2022/05/03 10:27:56;;;;;;;1.30;0.75;;;;;;;17.66;67.70;101133.94;5053245;28;20539;-68
2022/05/03 10:30:26;;;;;;;1.75;1.27;;;;;;;17.77;64.23;101137.44;5058804;28;20040;-68
2022/05/03 10:33:28;;;;;;;3.17;1.13;;;;;;;17.60;62.52;101138.22;5058551;28;20064;-69
2022/05/03 10:35:54;;;;;;;2.38;1.17;;;;;;;17.44;61.78;101134.31;4963783;28;20134;-69
2022/05/03 10:38:39;;;;;;;4.90;1.13;;;;;;;17.25;62.00;101127.28;5027575;28;20132;-68
2022/05/03 10:41:05;;;;;;;2.03;0.95;;;;;;;17.43;61.86;101125.38;5049796;28;20044;-69
2022/05/03 10:43:34;;;;;;;1.02;0.90;;;;;;;17.84;60.21;101126.53;5064857;28;20040;-68
2022/05/03 10:46:20;;;;;;;0.90;0.80;;;;;;;18.15;58.62;101122.19;5064649;28;20028;-68
2022/05/03 10:49:04;;;;;;;2.05;1.00;;;;;;;18.40;56.58;101116.63;5057786;28;20032;-68
2022/05/03 10:51:30;;;;;;;0.70;0.57;;;;;;;18.17;56.21;101124.50;5062433;28;20040;-68
2022/05/03 10:53:59;;;;;;;1.17;0.85;;;;;;;18.37;55.38;101114.72;5072078;28;20089;-68
2022/05/03 10:56:26;;;;;;;0.88;0.60;;;;;;;18.40;54.73;101108.44;5048723;28;20450;-68
2022/05/03 10:59:08;;;;;;;4.88;1.02;;;;;;;18.23;54.99;101112.81;5047032;28;20048;-68
2022/05/03 11:01:53;;;;;;;3.60;0.98;;;;;;;18.48;55.13;101105.34;5046561;28;20527;-69
2022/05/03 11:04:19;;;;;;;0.45;0.45;;;;;;;18.47;54.76;101113.88;5043654;28;21437;-71
2022/05/03 11:06:47;;;;;;;0.88;0.80;;;;;;;18.42;53.83;101123.28;5057116;28;20479;-68
2022/05/03 11:09:15;;;;;;;1.15;0.63;;;;;;;18.04;54.87;101116.75;5046091;28;20094;-68
2022/05/03 11:11:43;;;;;;;0.60;0.57;;;;;;;17.79;55.30;101115.22;5062866;28;20119;-69
2022/05/03 11:14:21;;;;;;;4.63;0.95;;;;;;;17.77;55.00;101114.84;5065520;28;20031;-71
2022/05/03 11:17:02;;;;;;;4.13;0.60;;;;;;;17.81;55.59;101119.13;5063506;28;20484;-69
2022/05/03 11:19:29;;;;;;;0.40;0.32;;;;;;;18.38;54.11;101111.56;5060503;28;20075;-67
2022/05/03 11:21:55;;;;;;;2.80;0.60;;;;;;;18.32;54.47;101106.91;5062621;28;20033;-68
2022/05/03 11:24:27;;;;;;;1.85;0.52;;;;;;;18.53;54.60;101110.38;5048544;28;20028;-68
2022/05/03 11:26:59;;;;;;;0.50;0.50;;;;;;;18.60;53.34;101112.28;5063018;28;20874;-67
2022/05/03 11:29:29;;;;;;;1.15;0.60;;;;;;;18.44;53.36;101112.75;5049809;28;20420;-69
2022/05/03 11:31:58;;;;;;;0.55;0.50;;;;;;;18.36;54.46;101118.59;5041380;28;20078;-69
2022/05/03 11:34:23;;;;;;;0.28;0.28;;;;;;;18.34;53.96;101126.38;5060135;28;20036;-69
2022/05/03 11:36:50;;;;;;;1.15;0.52;;;;;;;18.33;54.05;101117.44;5043399;28;20114;-68
2022/05/03 11:39:20;;;;;;;0.88;0.40;;;;;;;18.21;53.83;101108.91;5045134;28;20041;-69
2022/05/03 11:41:46;;;;;;;0.57;0.22;;;;;;;18.01;53.59;101120.28;5057877;28;20036;-70
2022/05/03 11:44:13;;;;;;;1.55;0.38;;;;;;;18.11;54.00;101120.63;5054883;28;20040;-71
2022/05/03 11:46:40;;;;;;;0.40;0.40;;;;;;;18.06;54.04;101121.03;5053571;28;20153;-67
2022/05/03 11:49:08;;;;;;;3.25;0.50;;;;;;;18.01;54.12;101117.53;5052258;28;20109;-70
2022/05/03 11:57:15;;;;;;;2.50;0.60;;;;;;;17.59;54.11;101109.44;5050887;28;20035;-69
2022/05/03 11:59:42;;;;;;;0.70;0.52;;;;;;;17.91;53.38;101110.16;5058002;28;20024;-69
2022/05/03 12:02:21;;;;;;;0.43;0.40;;;;;;;18.04;53.35;101114.00;5031214;28;20047;-68
2022/05/03 12:05:12;;;;;;;0.75;0.43;;;;;;;18.17;52.45;101110.88;5057599;28;20401;-68
2022/05/03 12:07:57;;;;;;;1.15;0.43;;;;;;;18.29;52.26;101113.19;5055411;28;20040;-68
2022/05/03 12:10:29;;;;;;;2.55;0.80;;;;;;;18.33;52.72;101113.94;5058612;28;20797;-69
2022/05/03 12:13:17;;;;;;;0.47;0.35;;;;;;;18.15;52.56;101114.00;5057313;28;20032;-71
2022/05/03 12:15:47;;;;;;;2.30;0.90;;;;;;;18.30;52.56;101115.50;5060075;28;20020;-69
2022/05/03 12:18:18;;;;;;;0.60;0.40;;;;;;;18.31;50.94;101110.81;5052080;28;20048;-71